Time,TemperatureF,DewpointF,PressureIn,WindDirection,WindDirectionDegrees,WindSpeedMPH,WindSpeedGustMPH,Humidity,HourlyPrecipIn,Conditions,Clouds,dailyrainin,SoftwareType,DateUTC
2013-11-05 00:01:00,29.5,20.9,30.42,SW,225,0.0,0.0,70,0.00,BKN,,0.00,WeatherDisplay:10.37,2013-11-05 05:01:00,
2013-11-05 00:02:00,29.5,21.3,30.42,SW,225,0.0,0.0,71,0.00,BKN,,0.00,WeatherDisplay:10.37,2013-11-05 05:02:00,
2013-11-05 00:03:00,29.3,20.7,30.43,East,90,0.0,0.0,70,0.00,BKN,,0.00,WeatherDisplay:10.37,2013-11-05 05:03:00,
2013-11-05 00:08:00,29.1,20.9,30.43,ESE,112,0.6,1.7,71,0.00,BKN,,0.00,WeatherDisplay:10.37,2013-11-05 05:08:00,
2013-11-05 00:13:00,29.1,21.2,30.43,SE,135,0.0,0.0,72,0.00,BKN,,0.00,WeatherDisplay:10.37,2013-11-05 05:13:00,
2013-11-05 00:18:00,28.8,21.2,30.43,East,90,0.0,0.0,73,0.00,BKN,,0.00,WeatherDisplay:10.37,2013-11-05 05:18:00,
2013-11-05 00:23:00,28.8,21.6,30.43,NW,315,0.0,0.0,74,0.00,BKN,,0.00,WeatherDisplay:10.37,2013-11-05 05:23:00,
2013-11-05 00:28:00,28.8,21.9,30.43,South,180,0.0,0.0,75,0.00,BKN,,0.00,WeatherDisplay:10.37,2013-11-05 05:28:00,
2013-11-05 00:33:00,29.5,22.6,30.43,SSE,158,0.0,0.0,75,0.00,BKN,,0.00,WeatherDisplay:10.37,2013-11-05 05:33:00,
2013-11-05 00:38:00,29.8,21.9,30.43,South,180,0.0,0.0,72,0.00,BKN,,0.00,WeatherDisplay:10.37,2013-11-05 05:38:00,
2013-11-05 00:43:00,29.8,21.9,30.43,SE,135,0.0,0.0,72,0.00,BKN,,0.00,WeatherDisplay:10.37,2013-11-05 05:43:00,
2013-11-05 00:48:00,29.7,22.1,30.43,ESE,112,0.9,1.7,73,0.00,BKN,,0.00,WeatherDisplay:10.37,2013-11-05 05:48:00,
2013-11-05 00:53:00,31.5,20.0,30.43,SE,135,1.6,2.3,62,0.00,BKN,,0.00,WeatherDisplay:10.37,2013-11-05 05:53:00,
2013-11-05 00:58:00,32.4,18.8,30.43,SSE,158,1.0,2.7,57,0.00,BKN,,0.00,WeatherDisplay:10.37,2013-11-05 05:58:00,
2013-11-05 01:03:00,33.3,18.4,30.43,SSW,202,0.1,1.1,54,0.00,BKN,,0.00,WeatherDisplay:10.37,2013-11-05 06:03:00,
2013-11-05 01:08:00,32.5,18.1,30.43,SW,225,0.0,0.0,55,0.00,BKN,,0.00,WeatherDisplay:10.37,2013-11-05 06:08:00,
2013-11-05 01:13:00,32.7,18.3,30.43,SE,135,0.5,1.1,55,0.00,BKN,,0.00,WeatherDisplay:10.37,2013-11-05 06:13:00,
2013-11-05 01:18:00,33.1,18.2,30.43,SSE,158,2.3,3.5,54,0.00,BKN,,0.00,WeatherDisplay:10.37,2013-11-05 06:18:00,
2013-11-05 01:23:00,33.6,17.8,30.43,East,90,0.9,2.3,52,0.00,BKN,,0.00,WeatherDisplay:10.37,2013-11-05 06:23:00,
2013-11-05 01:28:00,33.6,18.7,30.42,SSE,158,1.9,2.3,54,0.00,BKN,,0.00,WeatherDisplay:10.37,2013-11-05 06:28:00,
2013-11-05 01:33:00,33.8,18.9,30.42,ESE,112,2.3,2.3,54,0.00,BKN,,0.00,WeatherDisplay:10.37,2013-11-05 06:33:00,
2013-11-05 01:38:00,34.5,18.7,30.42,SSE,158,3.1,4.6,52,0.00,BKN,,0.00,WeatherDisplay:10.37,2013-11-05 06:38:00,
2013-11-05 01:43:00,34.0,19.1,30.42,NE,45,1.8,2.3,54,0.00,BKN,,0.00,WeatherDisplay:10.37,2013-11-05 06:43:00,
2013-11-05 01:48:00,33.8,18.9,30.42,East,90,0.0,0.0,54,0.00,BKN,,0.00,WeatherDisplay:10.37,2013-11-05 06:48:00,
2013-11-05 01:53:00,33.4,19.4,30.42,East,90,0.0,0.0,56,0.00,BKN,,0.00,WeatherDisplay:10.37,2013-11-05 06:53:00,
2013-11-05 01:58:00,33.3,20.1,30.42,SSE,158,2.4,2.4,58,0.00,BKN,,0.00,WeatherDisplay:10.37,2013-11-05 06:58:00,
2013-11-05 02:03:00,32.9,19.7,30.42,WSW,248,1.1,2.3,58,0.00,BKN,,0.00,WeatherDisplay:10.37,2013-11-05 07:03:00,
2013-11-05 02:08:00,32.9,19.7,30.42,NNE,22,1.1,2.7,58,0.00,BKN,,0.00,WeatherDisplay:10.37,2013-11-05 07:08:00,
2013-11-05 02:13:00,32.7,19.5,30.42,SE,135,0.7,1.1,58,0.00,BKN,,0.00,WeatherDisplay:10.37,2013-11-05 07:13:00,
2013-11-05 02:18:00,32.5,19.7,30.42,East,90,1.7,1.7,59,0.00,BKN,,0.00,WeatherDisplay:10.37,2013-11-05 07:18:00,
2013-11-05 02:23:00,32.4,20.0,30.42,NNE,22,1.6,2.3,60,0.00,BKN,,0.00,WeatherDisplay:10.37,2013-11-05 07:23:00,
2013-11-05 02:28:00,32.2,19.9,30.42,NNE,22,0.9,1.1,60,0.00,BKN,,0.00,WeatherDisplay:10.37,2013-11-05 07:28:00,
2013-11-05 02:33:00,32.0,20.1,30.42,NNE,22,1.7,1.7,61,0.00,BKN,,0.00,WeatherDisplay:10.37,2013-11-05 07:33:00,
2013-11-05 02:38:00,31.8,20.3,30.43,East,90,0.0,0.0,62,0.00,BKN,,0.00,WeatherDisplay:10.37,2013-11-05 07:38:00,
2013-11-05 02:43:00,31.5,20.0,30.43,ENE,68,0.0,0.0,62,0.00,BKN,,0.00,WeatherDisplay:10.37,2013-11-05 07:43:00,
2013-11-05 02:48:00,31.5,20.3,30.43,ENE,68,0.0,0.0,63,0.00,BKN,,0.00,WeatherDisplay:10.37,2013-11-05 07:48:00,
2013-11-05 02:53:00,31.3,20.5,30.42,ENE,68,0.0,0.0,64,0.00,BKN,,0.00,WeatherDisplay:10.37,2013-11-05 07:53:00,
2013-11-05 02:58:00,31.1,20.7,30.42,West,270,0.0,0.0,65,0.00,BKN,,0.00,WeatherDisplay:10.37,2013-11-05 07:58:00,
2013-11-05 03:03:00,30.9,20.5,30.43,East,90,0.0,0.0,65,0.00,BKN,,0.00,WeatherDisplay:10.37,2013-11-05 08:03:00,
2013-11-05 03:08:00,30.9,20.5,30.43,NNE,22,0.0,0.0,65,0.00,BKN,,0.00,WeatherDisplay:10.37,2013-11-05 08:08:00,
2013-11-05 03:13:00,30.7,20.7,30.43,SW,225,0.3,1.1,66,0.00,BKN,,0.00,WeatherDisplay:10.37,2013-11-05 08:13:00,
2013-11-05 03:18:00,30.6,20.6,30.43,ESE,112,0.3,1.1,66,0.00,BKN,,0.00,WeatherDisplay:10.37,2013-11-05 08:18:00,
2013-11-05 03:23:00,30.4,20.4,30.43,ESE,112,2.3,2.3,66,0.00,BKN,,0.00,WeatherDisplay:10.37,2013-11-05 08:23:00,
2013-11-05 03:28:00,30.6,20.6,30.43,ENE,68,0.0,0.0,66,0.00,BKN,,0.00,WeatherDisplay:10.37,2013-11-05 08:28:00,
2013-11-05 03:33:00,30.4,20.4,30.43,SE,135,0.0,0.0,66,0.00,BKN,,0.00,WeatherDisplay:10.37,2013-11-05 08:33:00,
2013-11-05 03:38:00,30.0,20.4,30.44,East,90,0.0,0.0,67,0.00,BKN,,0.00,WeatherDisplay:10.37,2013-11-05 08:38:00,
2013-11-05 03:43:00,29.8,20.5,30.44,ESE,112,0.0,0.0,68,0.00,BKN,,0.00,WeatherDisplay:10.37,2013-11-05 08:43:00,
2013-11-05 03:48:00,29.8,20.5,30.44,ESE,112,1.2,2.3,68,0.00,BKN,,0.00,WeatherDisplay:10.37,2013-11-05 08:48:00,
2013-11-05 03:53:00,30.4,20.7,30.44,ESE,112,1.8,2.3,67,0.00,BKN,,0.00,WeatherDisplay:10.37,2013-11-05 08:53:00,
2013-11-05 03:58:00,30.2,20.6,30.44,ESE,112,0.7,1.1,67,0.00,BKN,,0.00,WeatherDisplay:10.37,2013-11-05 08:58:00,
2013-11-05 04:03:00,30.0,20.7,30.44,East,90,2.0,2.3,68,0.00,BKN,,0.00,WeatherDisplay:10.37,2013-11-05 09:03:00,
2013-11-05 04:08:00,30.0,20.7,30.44,ESE,112,0.6,1.1,68,0.00,BKN,,0.00,WeatherDisplay:10.37,2013-11-05 09:08:00,
2013-11-05 04:13:00,30.2,20.9,30.44,SSE,158,1.8,2.3,68,0.00,BKN,,0.00,WeatherDisplay:10.37,2013-11-05 09:13:00,
2013-11-05 04:18:00,31.8,21.0,30.44,SSE,158,3.7,4.6,64,0.00,BKN,,0.00,WeatherDisplay:10.37,2013-11-05 09:18:00,
2013-11-05 04:23:00,32.9,21.3,30.44,SSE,158,3.9,4.6,62,0.00,BKN,,0.00,WeatherDisplay:10.37,2013-11-05 09:23:00,
2013-11-05 04:28:00,33.1,21.5,30.44,ESE,112,4.3,4.6,62,0.00,BKN,,0.00,WeatherDisplay:10.37,2013-11-05 09:28:00,
2013-11-05 04:33:00,33.4,21.4,30.44,SSE,158,2.5,2.7,61,0.00,BKN,,0.00,WeatherDisplay:10.37,2013-11-05 09:33:00,
2013-11-05 04:38:00,33.6,21.6,30.44,SE,135,2.8,3.5,61,0.00,BKN,,0.00,WeatherDisplay:10.37,2013-11-05 09:38:00,
2013-11-05 04:43:00,33.8,21.4,30.44,SSE,158,3.1,4.6,60,0.00,BKN,,0.00,WeatherDisplay:10.37,2013-11-05 09:43:00,
2013-11-05 04:48:00,33.6,21.2,30.44,SSE,158,2.2,2.3,60,0.00,BKN,,0.00,WeatherDisplay:10.37,2013-11-05 09:48:00,
2013-11-05 04:53:00,33.6,21.2,30.44,SSE,158,1.8,2.3,60,0.00,BKN,,0.00,WeatherDisplay:10.37,2013-11-05 09:53:00,
2013-11-05 04:58:00,33.8,21.4,30.44,SSE,158,2.5,2.7,60,0.00,BKN,,0.00,WeatherDisplay:10.37,2013-11-05 09:58:00,
2013-11-05 05:03:00,34.2,21.7,30.44,SSE,158,2.9,3.5,60,0.00,BKN,,0.00,WeatherDisplay:10.37,2013-11-05 10:03:00,
2013-11-05 05:08:00,34.3,21.4,30.44,SE,135,2.4,3.5,59,0.00,BKN,,0.00,WeatherDisplay:10.37,2013-11-05 10:08:00,
2013-11-05 05:13:00,34.7,21.8,30.44,SE,135,3.6,4.2,59,0.00,BKN,,0.00,WeatherDisplay:10.37,2013-11-05 10:13:00,
2013-11-05 05:18:00,34.9,22.0,30.44,SSE,158,3.5,4.6,59,0.00,BKN,,0.00,WeatherDisplay:10.37,2013-11-05 10:18:00,
2013-11-05 05:23:00,34.5,21.6,30.44,SSE,158,2.1,2.3,59,0.00,SCT,,0.00,WeatherDisplay:10.37,2013-11-05 10:23:00,
2013-11-05 05:28:00,34.2,21.7,30.44,SE,135,1.6,2.7,60,0.00,SCT,,0.00,WeatherDisplay:10.37,2013-11-05 10:28:00,
2013-11-05 05:33:00,34.3,21.8,30.44,SE,135,2.7,3.5,60,0.00,SCT,,0.00,WeatherDisplay:10.37,2013-11-05 10:33:00,
2013-11-05 05:38:00,34.3,21.8,30.44,ESE,112,2.3,2.3,60,0.00,SCT,,0.00,WeatherDisplay:10.37,2013-11-05 10:38:00,
2013-11-05 05:43:00,34.7,22.2,30.44,SSE,158,3.5,3.7,60,0.00,SCT,,0.00,WeatherDisplay:10.37,2013-11-05 10:43:00,
2013-11-05 05:48:00,35.1,22.2,30.44,SSE,158,3.9,4.6,59,0.00,SCT,,0.00,WeatherDisplay:10.37,2013-11-05 10:48:00,
2013-11-05 05:53:00,35.4,22.1,30.44,SSE,158,4.2,5.8,58,0.00,SCT,,0.00,WeatherDisplay:10.37,2013-11-05 10:53:00,
2013-11-05 05:58:00,35.4,22.1,30.44,SSE,158,3.9,4.6,58,0.00,SCT,,0.00,WeatherDisplay:10.37,2013-11-05 10:58:00,
2013-11-05 06:03:00,35.6,22.3,30.43,SSE,158,5.1,5.8,58,0.00,FEW,,0.00,WeatherDisplay:10.37,2013-11-05 11:03:00,
2013-11-05 06:08:00,35.8,22.5,30.43,SSW,202,3.8,4.6,58,0.00,FEW,,0.00,WeatherDisplay:10.37,2013-11-05 11:08:00,
2013-11-05 06:13:00,35.8,22.5,30.43,SSE,158,4.1,4.7,58,0.00,FEW,,0.00,WeatherDisplay:10.37,2013-11-05 11:13:00,
2013-11-05 06:18:00,35.4,22.5,30.43,ESE,112,3.1,3.5,59,0.00,FEW,,0.00,WeatherDisplay:10.37,2013-11-05 11:18:00,
2013-11-05 06:23:00,35.4,22.5,30.43,ESE,112,3.5,4.2,59,0.00,FEW,,0.00,WeatherDisplay:10.37,2013-11-05 11:23:00,
2013-11-05 06:28:00,35.4,22.5,30.43,SSE,158,3.0,4.6,59,0.00,FEW,,0.00,WeatherDisplay:10.37,2013-11-05 11:28:00,
2013-11-05 06:33:00,35.4,22.5,30.43,South,180,2.5,2.7,59,0.00,FEW,,0.00,WeatherDisplay:10.37,2013-11-05 11:33:00,
2013-11-05 06:38:00,35.8,22.9,30.43,SE,135,2.4,3.5,59,0.00,FEW,,0.00,WeatherDisplay:10.37,2013-11-05 11:38:00,
2013-11-05 06:43:00,35.6,22.7,30.43,SSE,158,2.8,3.5,59,0.00,FEW,,0.00,WeatherDisplay:10.37,2013-11-05 11:43:00,
2013-11-05 06:48:00,35.6,22.7,30.43,SSE,158,3.1,3.5,59,0.00,FEW,,0.00,WeatherDisplay:10.37,2013-11-05 11:48:00,
2013-11-05 06:53:00,36.0,23.0,30.43,SSE,158,2.8,4.2,59,0.00,FEW,,0.00,WeatherDisplay:10.37,2013-11-05 11:53:00,
2013-11-05 06:58:00,36.0,23.0,30.43,SSE,158,2.9,4.6,59,0.00,FEW,,0.00,WeatherDisplay:10.37,2013-11-05 11:58:00,
2013-11-05 07:03:00,36.3,23.3,30.43,NNE,22,2.8,3.5,59,0.00,SCT,,0.00,WeatherDisplay:10.37,2013-11-05 12:03:00,
2013-11-05 07:08:00,36.3,23.3,30.43,SSE,158,4.1,6.9,59,0.00,SCT,,0.00,WeatherDisplay:10.37,2013-11-05 12:08:00,
2013-11-05 07:13:00,36.5,23.5,30.43,SSE,158,3.2,3.7,59,0.00,SCT,,0.00,WeatherDisplay:10.37,2013-11-05 12:13:00,
2013-11-05 07:18:00,36.9,23.9,30.44,SSE,158,3.6,4.6,59,0.00,SCT,,0.00,WeatherDisplay:10.37,2013-11-05 12:18:00,
2013-11-05 07:23:00,37.0,24.0,30.44,West,270,2.5,3.5,59,0.00,SCT,,0.00,WeatherDisplay:10.37,2013-11-05 12:23:00,
2013-11-05 07:28:00,37.2,24.2,30.44,SSE,158,3.0,3.5,59,0.00,SCT,,0.00,WeatherDisplay:10.37,2013-11-05 12:28:00,
2013-11-05 07:33:00,37.2,24.2,30.44,South,180,3.4,4.2,59,0.00,SCT,,0.00,WeatherDisplay:10.37,2013-11-05 12:33:00,
2013-11-05 07:38:00,37.8,24.3,30.44,SSE,158,2.7,2.7,58,0.00,SCT,,0.00,WeatherDisplay:10.37,2013-11-05 12:38:00,
2013-11-05 07:43:00,38.7,24.8,30.44,South,180,3.1,3.5,57,0.00,SCT,,0.00,WeatherDisplay:10.37,2013-11-05 12:43:00,
2013-11-05 07:48:00,39.6,25.2,30.44,South,180,3.2,3.5,56,0.00,SCT,,0.00,WeatherDisplay:10.37,2013-11-05 12:48:00,
2013-11-05 07:53:00,40.5,25.1,30.45,South,180,3.2,3.5,54,0.00,SCT,,0.00,WeatherDisplay:10.37,2013-11-05 12:53:00,
2013-11-05 07:58:00,40.6,25.2,30.45,SSE,158,2.9,4.6,54,0.00,SCT,,0.00,WeatherDisplay:10.37,2013-11-05 12:58:00,
2013-11-05 08:03:00,40.8,25.4,30.44,SE,135,2.8,3.5,54,0.00,SCT,,0.00,WeatherDisplay:10.37,2013-11-05 13:03:00,
2013-11-05 08:08:00,40.6,25.2,30.44,SE,135,3.6,3.7,54,0.00,SCT,,0.00,WeatherDisplay:10.37,2013-11-05 13:08:00,
2013-11-05 08:13:00,40.5,25.1,30.44,South,180,4.1,5.8,54,0.00,SCT,,0.00,WeatherDisplay:10.37,2013-11-05 13:13:00,
2013-11-05 08:18:00,41.2,25.8,30.44,SE,135,2.5,3.5,54,0.00,SCT,,0.00,WeatherDisplay:10.37,2013-11-05 13:18:00,
2013-11-05 08:23:00,41.7,25.8,30.44,SE,135,3.5,4.7,53,0.00,SCT,,0.00,WeatherDisplay:10.37,2013-11-05 13:23:00,
2013-11-05 08:28:00,41.9,26.4,30.45,SSE,158,4.2,4.7,54,0.00,SCT,,0.00,WeatherDisplay:10.37,2013-11-05 13:28:00,
2013-11-05 08:33:00,42.1,26.6,30.45,South,180,2.2,2.7,54,0.00,SCT,,0.00,WeatherDisplay:10.37,2013-11-05 13:33:00,
2013-11-05 08:38:00,42.3,26.4,30.45,SE,135,4.3,5.8,53,0.00,SCT,,0.00,WeatherDisplay:10.37,2013-11-05 13:38:00,
2013-11-05 08:43:00,42.4,26.5,30.45,SSE,158,3.5,4.6,53,0.00,SCT,,0.00,WeatherDisplay:10.37,2013-11-05 13:43:00,
2013-11-05 08:48:00,42.8,26.4,30.45,South,180,4.7,5.8,52,0.00,SCT,,0.00,WeatherDisplay:10.37,2013-11-05 13:48:00,
2013-11-05 08:53:00,43.0,26.6,30.45,South,180,5.0,5.8,52,0.00,SCT,,0.00,WeatherDisplay:10.37,2013-11-05 13:53:00,
2013-11-05 08:58:00,43.3,26.8,30.45,SSE,158,4.7,5.8,52,0.00,SCT,,0.00,WeatherDisplay:10.37,2013-11-05 13:58:00,
2013-11-05 09:03:00,43.7,27.2,30.45,SSE,158,4.4,5.8,52,0.00,BKN,,0.00,WeatherDisplay:10.37,2013-11-05 14:03:00,
2013-11-05 09:08:00,44.1,27.6,30.45,SSE,158,5.0,5.8,52,0.00,BKN,,0.00,WeatherDisplay:10.37,2013-11-05 14:08:00,
2013-11-05 09:13:00,45.7,28.1,30.45,SSE,158,4.7,5.8,50,0.00,BKN,,0.00,WeatherDisplay:10.37,2013-11-05 14:13:00,
2013-11-05 09:18:00,47.3,28.6,30.44,WSW,248,3.9,4.6,48,0.00,BKN,,0.00,WeatherDisplay:10.37,2013-11-05 14:18:00,
2013-11-05 09:23:00,47.3,28.6,30.44,SSE,158,3.6,4.6,48,0.00,BKN,,0.00,WeatherDisplay:10.37,2013-11-05 14:23:00,
2013-11-05 09:28:00,47.3,28.1,30.44,SSE,158,6.8,6.9,47,0.00,BKN,,0.00,WeatherDisplay:10.37,2013-11-05 14:28:00,
2013-11-05 09:33:00,47.8,28.5,30.44,SE,135,6.2,6.3,47,0.00,BKN,,0.00,WeatherDisplay:10.37,2013-11-05 14:33:00,
2013-11-05 09:38:00,47.8,28.5,30.43,SE,135,6.3,6.3,47,0.00,BKN,,0.00,WeatherDisplay:10.37,2013-11-05 14:38:00,
2013-11-05 09:43:00,48.0,28.7,30.43,SSE,158,5.5,6.9,47,0.00,BKN,,0.00,WeatherDisplay:10.37,2013-11-05 14:43:00,
2013-11-05 09:48:00,47.8,28.5,30.43,SSE,158,4.4,4.6,47,0.00,BKN,,0.00,WeatherDisplay:10.37,2013-11-05 14:48:00,
2013-11-05 09:53:00,49.5,29.6,30.43,South,180,4.0,5.8,46,0.00,BKN,,0.00,WeatherDisplay:10.37,2013-11-05 14:53:00,
2013-11-05 09:58:00,51.3,30.7,30.43,South,180,4.2,4.6,45,0.00,BKN,,0.00,WeatherDisplay:10.37,2013-11-05 14:58:00,
2013-11-05 10:03:00,52.3,31.6,30.43,SE,135,4.8,6.9,45,0.00,BKN,,0.00,WeatherDisplay:10.37,2013-11-05 15:03:00,
2013-11-05 10:08:00,53.1,31.2,30.43,SSE,158,5.3,6.9,43,0.00,BKN,,0.00,WeatherDisplay:10.37,2013-11-05 15:08:00,
2013-11-05 10:13:00,52.9,31.0,30.43,SSE,158,5.6,5.8,43,0.00,BKN,,0.00,WeatherDisplay:10.37,2013-11-05 15:13:00,
2013-11-05 10:18:00,53.2,30.7,30.43,South,180,4.7,5.8,42,0.00,BKN,,0.00,WeatherDisplay:10.37,2013-11-05 15:18:00,
2013-11-05 10:23:00,53.6,31.6,30.43,South,180,3.4,4.6,43,0.00,BKN,,0.00,WeatherDisplay:10.37,2013-11-05 15:23:00,
2013-11-05 10:28:00,53.6,31.6,30.42,SE,135,6.4,8.1,43,0.00,BKN,,0.00,WeatherDisplay:10.37,2013-11-05 15:28:00,
2013-11-05 10:33:00,54.1,32.1,30.42,SSW,202,5.9,6.9,43,0.00,BKN,,0.00,WeatherDisplay:10.37,2013-11-05 15:33:00,
2013-11-05 10:38:00,55.2,32.5,30.42,SW,225,3.9,4.6,42,0.00,BKN,,0.00,WeatherDisplay:10.37,2013-11-05 15:38:00,
2013-11-05 10:43:00,55.4,32.1,30.42,SW,225,4.9,6.9,41,0.00,BKN,,0.00,WeatherDisplay:10.37,2013-11-05 15:43:00,
2013-11-05 10:48:00,56.1,32.1,30.42,ESE,112,3.0,5.8,40,0.00,BKN,,0.00,WeatherDisplay:10.37,2013-11-05 15:48:00,
2013-11-05 10:53:00,55.8,31.8,30.42,South,180,5.1,6.9,40,0.00,BKN,,0.00,WeatherDisplay:10.37,2013-11-05 15:53:00,
2013-11-05 10:58:00,56.7,32.0,30.42,ESE,112,5.0,5.8,39,0.00,BKN,,0.00,WeatherDisplay:10.37,2013-11-05 15:58:00,
2013-11-05 11:03:00,56.7,32.0,30.42,ESE,112,5.3,5.8,39,0.00,BKN,,0.00,WeatherDisplay:10.37,2013-11-05 16:03:00,
2013-11-05 11:08:00,57.0,31.6,30.42,SSE,158,6.7,8.1,38,0.00,BKN,,0.00,WeatherDisplay:10.37,2013-11-05 16:08:00,
2013-11-05 11:13:00,57.6,33.4,30.42,SSE,158,2.1,4.6,40,0.00,BKN,,0.00,WeatherDisplay:10.37,2013-11-05 16:13:00,
2013-11-05 11:18:00,55.9,31.9,30.41,SSE,158,3.8,5.8,40,0.00,BKN,,0.00,WeatherDisplay:10.37,2013-11-05 16:18:00,
2013-11-05 11:23:00,55.9,32.5,30.41,SE,135,4.8,6.3,41,0.00,BKN,,0.00,WeatherDisplay:10.37,2013-11-05 16:23:00,
2013-11-05 11:28:00,54.9,31.0,30.41,SSW,202,3.4,4.6,40,0.00,BKN,,0.00,WeatherDisplay:10.37,2013-11-05 16:28:00,
2013-11-05 11:33:00,55.0,31.7,30.41,SE,135,4.5,6.3,41,0.00,BKN,,0.00,WeatherDisplay:10.37,2013-11-05 16:33:00,
2013-11-05 11:38:00,55.6,31.6,30.41,South,180,3.8,5.3,40,0.00,BKN,,0.00,WeatherDisplay:10.37,2013-11-05 16:38:00,
2013-11-05 11:43:00,55.0,31.7,30.41,SSE,158,4.1,4.6,41,0.00,BKN,,0.00,WeatherDisplay:10.37,2013-11-05 16:43:00,
2013-11-05 11:48:00,55.4,31.5,30.41,South,180,6.3,6.9,40,0.00,BKN,,0.00,WeatherDisplay:10.37,2013-11-05 16:48:00,
2013-11-05 11:53:00,55.9,31.9,30.40,SSW,202,7.0,8.1,40,0.00,BKN,,0.00,WeatherDisplay:10.37,2013-11-05 16:53:00,
2013-11-05 11:58:00,56.5,32.4,30.40,ESE,112,6.0,8.1,40,0.00,BKN,,0.00,WeatherDisplay:10.37,2013-11-05 16:58:00,
2013-11-05 12:03:00,57.2,32.4,30.40,SSW,202,2.6,5.8,39,0.00,BKN,,0.00,WeatherDisplay:10.37,2013-11-05 17:03:00,
2013-11-05 12:08:00,57.0,31.6,30.40,South,180,6.8,8.3,38,0.00,BKN,,0.00,WeatherDisplay:10.37,2013-11-05 17:08:00,
2013-11-05 12:13:00,56.8,31.4,30.40,SE,135,6.9,10.4,38,0.00,BKN,,0.00,WeatherDisplay:10.37,2013-11-05 17:13:00,
2013-11-05 12:18:00,57.6,32.2,30.40,SSE,158,5.9,8.3,38,0.00,BKN,,0.00,WeatherDisplay:10.37,2013-11-05 17:18:00,
2013-11-05 12:23:00,57.2,31.8,30.40,SSE,158,5.2,6.9,38,0.00,BKN,,0.00,WeatherDisplay:10.37,2013-11-05 17:23:00,
2013-11-05 12:28:00,56.5,32.4,30.39,SSE,158,6.4,6.9,40,0.00,BKN,,0.00,WeatherDisplay:10.37,2013-11-05 17:28:00,
2013-11-05 12:33:00,57.9,32.4,30.39,SSE,158,3.3,8.1,38,0.00,BKN,,0.00,WeatherDisplay:10.37,2013-11-05 17:33:00,
2013-11-05 12:38:00,59.9,31.4,30.39,South,180,4.4,5.8,34,0.00,BKN,,0.00,WeatherDisplay:10.37,2013-11-05 17:38:00,
2013-11-05 12:43:00,58.6,32.4,30.39,SSE,158,3.6,4.6,37,0.00,BKN,,0.00,WeatherDisplay:10.37,2013-11-05 17:43:00,
2013-11-05 12:48:00,58.5,31.6,30.39,SSE,158,4.7,5.8,36,0.00,BKN,,0.00,WeatherDisplay:10.37,2013-11-05 17:48:00,
2013-11-05 12:53:00,59.0,32.1,30.38,SSE,158,3.3,5.8,36,0.00,BKN,,0.00,WeatherDisplay:10.37,2013-11-05 17:53:00,
2013-11-05 12:58:00,58.1,31.9,30.38,South,180,3.2,4.6,37,0.00,BKN,,0.00,WeatherDisplay:10.37,2013-11-05 17:58:00,
2013-11-05 13:03:00,58.6,31.7,30.38,WSW,248,1.0,2.3,36,0.00,BKN,,0.00,WeatherDisplay:10.37,2013-11-05 18:03:00,
2013-11-05 13:08:00,58.8,31.9,30.38,SSE,158,5.6,6.9,36,0.00,BKN,,0.00,WeatherDisplay:10.37,2013-11-05 18:08:00,
2013-11-05 13:13:00,59.2,32.9,30.38,West,270,4.1,5.8,37,0.00,SCT,,0.00,WeatherDisplay:10.37,2013-11-05 18:13:00,
2013-11-05 13:18:00,59.2,32.2,30.38,SSE,158,5.8,8.8,36,0.00,SCT,,0.00,WeatherDisplay:10.37,2013-11-05 18:18:00,
2013-11-05 13:23:00,59.0,32.7,30.38,SE,135,4.6,5.8,37,0.00,SCT,,0.00,WeatherDisplay:10.37,2013-11-05 18:23:00,
2013-11-05 13:28:00,59.0,32.1,30.37,West,270,3.3,5.8,36,0.00,SCT,,0.00,WeatherDisplay:10.37,2013-11-05 18:28:00,
2013-11-05 13:33:00,59.5,32.5,30.37,WSW,248,3.8,4.6,36,0.00,SCT,,0.00,WeatherDisplay:10.37,2013-11-05 18:33:00,
2013-11-05 13:38:00,60.3,32.5,30.38,SSE,158,6.2,6.9,35,0.00,SCT,,0.00,WeatherDisplay:10.37,2013-11-05 18:38:00,
2013-11-05 13:43:00,59.4,32.4,30.38,South,180,5.8,8.1,36,0.00,SCT,,0.00,WeatherDisplay:10.37,2013-11-05 18:43:00,
2013-11-05 13:48:00,59.9,32.2,30.38,East,90,2.8,5.8,35,0.00,SCT,,0.00,WeatherDisplay:10.37,2013-11-05 18:48:00,
2013-11-05 13:53:00,60.6,33.5,30.37,South,180,2.7,4.6,36,0.00,SCT,,0.00,WeatherDisplay:10.37,2013-11-05 18:53:00,
2013-11-05 13:58:00,61.2,33.3,30.37,SSW,202,3.7,3.7,35,0.00,SCT,,0.00,WeatherDisplay:10.37,2013-11-05 18:58:00,
2013-11-05 14:03:00,60.4,33.3,30.37,SSE,158,4.4,4.6,36,0.00,SCT,,0.00,WeatherDisplay:10.37,2013-11-05 19:03:00,
2013-11-05 14:08:00,60.4,33.3,30.37,NE,45,3.1,4.6,36,0.00,SCT,,0.00,WeatherDisplay:10.37,2013-11-05 19:08:00,
2013-11-05 14:13:00,59.7,32.7,30.37,SSE,158,4.5,6.9,36,0.00,BKN,,0.00,WeatherDisplay:10.37,2013-11-05 19:13:00,
2013-11-05 14:18:00,60.3,32.5,30.36,West,270,3.8,5.8,35,0.00,BKN,,0.00,WeatherDisplay:10.37,2013-11-05 19:18:00,
2013-11-05 14:23:00,60.3,33.2,30.36,West,270,2.2,3.7,36,0.00,BKN,,0.00,WeatherDisplay:10.37,2013-11-05 19:23:00,
2013-11-05 14:28:00,60.4,31.9,30.36,NW,315,5.7,8.1,34,0.00,BKN,,0.00,WeatherDisplay:10.37,2013-11-05 19:28:00,
2013-11-05 14:33:00,59.7,32.7,30.36,SW,225,3.4,5.8,36,0.00,BKN,,0.00,WeatherDisplay:10.37,2013-11-05 19:33:00,
2013-11-05 14:38:00,59.5,32.5,30.36,SSE,158,3.9,5.3,36,0.00,BKN,,0.00,WeatherDisplay:10.37,2013-11-05 19:38:00,
2013-11-05 14:43:00,59.2,32.2,30.36,SW,225,4.2,5.8,36,0.00,BKN,,0.00,WeatherDisplay:10.37,2013-11-05 19:43:00,
2013-11-05 14:48:00,59.7,32.7,30.36,WNW,292,2.0,2.3,36,0.00,BKN,,0.00,WeatherDisplay:10.37,2013-11-05 19:48:00,
2013-11-05 14:53:00,61.5,32.8,30.37,West,270,4.7,5.8,34,0.00,BKN,,0.00,WeatherDisplay:10.37,2013-11-05 19:53:00,
2013-11-05 14:58:00,62.2,32.0,30.37,South,180,2.4,4.6,32,0.00,BKN,,0.00,WeatherDisplay:10.37,2013-11-05 19:58:00,
2013-11-05 15:03:00,61.5,32.1,30.37,SW,225,4.7,5.8,33,0.00,BKN,,0.00,WeatherDisplay:10.37,2013-11-05 20:03:00,
2013-11-05 15:08:00,61.3,31.9,30.37,SW,225,2.2,2.3,33,0.00,BKN,,0.00,WeatherDisplay:10.37,2013-11-05 20:08:00,
2013-11-05 15:13:00,60.4,32.6,30.37,South,180,3.1,3.5,35,0.00,BKN,,0.00,WeatherDisplay:10.37,2013-11-05 20:13:00,
2013-11-05 15:18:00,58.8,31.9,30.36,SSE,158,6.1,6.9,36,0.00,BKN,,0.00,WeatherDisplay:10.37,2013-11-05 20:18:00,
2013-11-05 15:23:00,59.5,31.8,30.36,SSW,202,5.6,6.9,35,0.00,BKN,,0.00,WeatherDisplay:10.37,2013-11-05 20:23:00,
2013-11-05 15:28:00,59.0,32.1,30.36,SW,225,2.6,3.5,36,0.00,BKN,,0.00,WeatherDisplay:10.37,2013-11-05 20:28:00,
2013-11-05 15:33:00,58.1,32.6,30.36,SSW,202,2.4,2.4,38,0.00,BKN,,0.00,WeatherDisplay:10.37,2013-11-05 20:33:00,
2013-11-05 15:38:00,57.4,32.0,30.36,SSE,158,4.6,7.3,38,0.00,BKN,,0.00,WeatherDisplay:10.37,2013-11-05 20:38:00,
2013-11-05 15:43:00,56.7,32.0,30.36,SE,135,2.4,4.6,39,0.00,BKN,,0.00,WeatherDisplay:10.37,2013-11-05 20:43:00,
2013-11-05 15:48:00,56.1,31.5,30.36,ESE,112,2.9,4.6,39,0.00,BKN,,0.00,WeatherDisplay:10.37,2013-11-05 20:48:00,
2013-11-05 15:53:00,55.9,31.9,30.36,North,360,3.9,5.8,40,0.00,BKN,,0.00,WeatherDisplay:10.37,2013-11-05 20:53:00,
2013-11-05 15:58:00,55.6,31.6,30.36,South,180,4.6,5.8,40,0.00,BKN,,0.00,WeatherDisplay:10.37,2013-11-05 20:58:00,
2013-11-05 16:03:00,55.4,31.5,30.35,SE,135,7.2,8.1,40,0.00,BKN,,0.00,WeatherDisplay:10.37,2013-11-05 21:03:00,
2013-11-05 16:08:00,55.4,31.5,30.35,WSW,248,4.7,6.8,40,0.00,BKN,,0.00,WeatherDisplay:10.37,2013-11-05 21:08:00,
2013-11-05 16:13:00,55.4,31.5,30.35,ESE,112,3.8,4.6,40,0.00,BKN,,0.00,WeatherDisplay:10.37,2013-11-05 21:13:00,
2013-11-05 16:18:00,55.0,31.1,30.35,NE,45,0.9,1.1,40,0.00,BKN,,0.00,WeatherDisplay:10.37,2013-11-05 21:18:00,
2013-11-05 16:23:00,54.9,31.0,30.35,SSE,158,3.1,3.5,40,0.00,BKN,,0.00,WeatherDisplay:10.37,2013-11-05 21:23:00,
2013-11-05 16:28:00,54.5,31.3,30.35,SSE,158,2.6,3.5,41,0.00,BKN,,0.00,WeatherDisplay:10.37,2013-11-05 21:28:00,
2013-11-05 16:33:00,54.3,31.1,30.35,SSE,158,3.3,3.7,41,0.00,BKN,,0.00,WeatherDisplay:10.37,2013-11-05 21:33:00,
2013-11-05 16:38:00,54.3,30.5,30.36,WNW,292,3.7,5.8,40,0.00,BKN,,0.00,WeatherDisplay:10.37,2013-11-05 21:38:00,
2013-11-05 16:43:00,54.1,30.9,30.36,SW,225,2.8,3.5,41,0.00,BKN,,0.00,WeatherDisplay:10.37,2013-11-05 21:43:00,
2013-11-05 16:48:00,54.0,30.2,30.36,ESE,112,3.0,3.5,40,0.00,BKN,,0.00,WeatherDisplay:10.37,2013-11-05 21:48:00,
2013-11-05 16:53:00,53.8,30.0,30.36,West,270,3.1,4.6,40,0.00,BKN,,0.00,WeatherDisplay:10.37,2013-11-05 21:53:00,
2013-11-05 16:58:00,53.6,29.8,30.36,SE,135,3.7,4.6,40,0.00,BKN,,0.00,WeatherDisplay:10.37,2013-11-05 21:58:00,
2013-11-05 17:03:00,53.4,29.7,30.36,SSE,158,3.3,4.6,40,0.00,BKN,,0.00,WeatherDisplay:10.37,2013-11-05 22:03:00,
2013-11-05 17:08:00,53.1,30.0,30.36,WSW,248,1.1,2.3,41,0.00,BKN,,0.00,WeatherDisplay:10.37,2013-11-05 22:08:00,
2013-11-05 17:13:00,52.9,29.8,30.36,SE,135,2.0,2.7,41,0.00,BKN,,0.00,WeatherDisplay:10.37,2013-11-05 22:13:00,
2013-11-05 17:18:00,52.7,29.6,30.36,SW,225,1.1,2.3,41,0.00,BKN,,0.00,WeatherDisplay:10.37,2013-11-05 22:18:00,
2013-11-05 17:23:00,52.5,29.5,30.36,SSE,158,2.1,3.5,41,0.00,BKN,,0.00,WeatherDisplay:10.37,2013-11-05 22:23:00,
2013-11-05 17:28:00,52.5,29.5,30.35,SSE,158,2.1,2.7,41,0.00,BKN,,0.00,WeatherDisplay:10.37,2013-11-05 22:28:00,
2013-11-05 17:33:00,52.5,30.0,30.35,ESE,112,2.3,4.6,42,0.00,BKN,,0.00,WeatherDisplay:10.37,2013-11-05 22:33:00,
2013-11-05 17:38:00,52.3,29.9,30.35,SSE,158,0.8,3.2,42,0.00,BKN,,0.00,WeatherDisplay:10.37,2013-11-05 22:38:00,
2013-11-05 17:43:00,52.0,29.6,30.35,SE,135,0.8,1.7,42,0.00,BKN,,0.00,WeatherDisplay:10.37,2013-11-05 22:43:00,
2013-11-05 17:48:00,51.6,29.8,30.35,SSE,158,0.7,1.1,43,0.00,BKN,,0.00,WeatherDisplay:10.37,2013-11-05 22:48:00,
2013-11-05 17:53:00,51.4,30.2,30.35,SSE,158,0.4,1.7,44,0.00,BKN,,0.00,WeatherDisplay:10.37,2013-11-05 22:53:00,
2013-11-05 17:58:00,51.3,30.1,30.35,ESE,112,1.2,2.3,44,0.00,BKN,,0.00,WeatherDisplay:10.37,2013-11-05 22:58:00,
2013-11-05 18:03:00,51.3,30.1,30.35,SSE,158,2.9,3.5,44,0.00,OVC,,0.00,WeatherDisplay:10.37,2013-11-05 23:03:00,
2013-11-05 18:08:00,51.3,30.1,30.35,East,90,1.1,1.1,44,0.00,OVC,,0.00,WeatherDisplay:10.37,2013-11-05 23:08:00,
2013-11-05 18:13:00,51.1,30.5,30.35,SSW,202,2.2,3.5,45,0.00,OVC,,0.00,WeatherDisplay:10.37,2013-11-05 23:13:00,
2013-11-05 18:18:00,51.1,31.0,30.35,South,180,1.6,2.3,46,0.00,OVC,,0.00,WeatherDisplay:10.37,2013-11-05 23:18:00,
2013-11-05 18:23:00,51.1,30.5,30.35,WSW,248,0.4,4.2,45,0.00,OVC,,0.00,WeatherDisplay:10.37,2013-11-05 23:23:00,
2013-11-05 18:28:00,51.3,30.1,30.35,ENE,68,1.0,1.1,44,0.00,OVC,,0.00,WeatherDisplay:10.37,2013-11-05 23:28:00,
2013-11-05 18:33:00,51.4,30.2,30.35,SSW,202,0.0,0.0,44,0.00,OVC,,0.00,WeatherDisplay:10.37,2013-11-05 23:33:00,
2013-11-05 18:38:00,51.3,29.5,30.36,WSW,248,1.2,1.7,43,0.00,OVC,,0.00,WeatherDisplay:10.37,2013-11-05 23:38:00,
2013-11-05 18:43:00,51.4,29.6,30.36,SW,225,2.9,4.6,43,0.00,OVC,,0.00,WeatherDisplay:10.37,2013-11-05 23:43:00,
2013-11-05 18:48:00,51.4,30.2,30.36,SSW,202,3.7,4.7,44,0.00,OVC,,0.00,WeatherDisplay:10.37,2013-11-05 23:48:00,
2013-11-05 18:53:00,51.6,29.2,30.36,WNW,292,1.7,4.6,42,0.00,OVC,,0.00,WeatherDisplay:10.37,2013-11-05 23:53:00,
2013-11-05 18:58:00,51.6,29.2,30.36,ESE,112,2.7,4.6,42,0.00,OVC,,0.00,WeatherDisplay:10.37,2013-11-05 23:58:00,
2013-11-05 19:03:00,51.8,29.4,30.36,South,180,2.0,3.5,42,0.00,OVC,,0.00,WeatherDisplay:10.37,2013-11-06 00:03:00,
2013-11-05 19:08:00,51.8,29.4,30.36,SE,135,2.0,3.7,42,0.00,OVC,,0.00,WeatherDisplay:10.37,2013-11-06 00:08:00,
2013-11-05 19:13:00,51.6,29.2,30.36,NW,315,2.0,2.3,42,0.00,OVC,,0.00,WeatherDisplay:10.37,2013-11-06 00:13:00,
2013-11-05 19:18:00,51.8,29.4,30.36,SSE,158,4.8,5.8,42,0.00,OVC,,0.00,WeatherDisplay:10.37,2013-11-06 00:18:00,
2013-11-05 19:23:00,51.6,29.2,30.36,SSE,158,3.4,4.6,42,0.00,OVC,,0.00,WeatherDisplay:10.37,2013-11-06 00:23:00,
2013-11-05 19:28:00,51.8,29.4,30.35,SE,135,4.1,4.6,42,0.00,OVC,,0.00,WeatherDisplay:10.37,2013-11-06 00:28:00,
2013-11-05 19:33:00,51.8,29.4,30.35,SSE,158,2.7,5.8,42,0.00,OVC,,0.00,WeatherDisplay:10.37,2013-11-06 00:33:00,
2013-11-05 19:38:00,51.6,29.2,30.35,SSE,158,3.6,4.6,42,0.00,OVC,,0.00,WeatherDisplay:10.37,2013-11-06 00:38:00,
2013-11-05 19:43:00,51.6,29.2,30.35,NE,45,2.5,4.7,42,0.00,OVC,,0.00,WeatherDisplay:10.37,2013-11-06 00:43:00,
2013-11-05 19:48:00,51.4,29.1,30.35,WSW,248,2.5,3.5,42,0.00,OVC,,0.00,WeatherDisplay:10.37,2013-11-06 00:48:00,
2013-11-05 19:53:00,51.4,29.1,30.35,SW,225,2.9,5.8,42,0.00,OVC,,0.00,WeatherDisplay:10.37,2013-11-06 00:53:00,
2013-11-05 19:58:00,51.4,29.1,30.35,SE,135,3.5,4.6,42,0.00,OVC,,0.00,WeatherDisplay:10.37,2013-11-06 00:58:00,
2013-11-05 20:03:00,51.4,28.5,30.34,ESE,112,3.4,4.2,41,0.00,OVC,,0.00,WeatherDisplay:10.37,2013-11-06 01:03:00,
2013-11-05 20:08:00,51.3,28.4,30.34,South,180,4.3,5.8,41,0.00,OVC,,0.00,WeatherDisplay:10.37,2013-11-06 01:08:00,
2013-11-05 20:13:00,51.3,28.4,30.34,South,180,4.5,5.8,41,0.00,OVC,,0.00,WeatherDisplay:10.37,2013-11-06 01:13:00,
2013-11-05 20:18:00,51.1,28.2,30.34,West,270,3.4,4.6,41,0.00,OVC,,0.00,WeatherDisplay:10.37,2013-11-06 01:18:00,
2013-11-05 20:23:00,51.1,28.2,30.34,SSE,158,4.5,4.6,41,0.00,OVC,,0.00,WeatherDisplay:10.37,2013-11-06 01:23:00,
2013-11-05 20:28:00,50.9,28.0,30.33,South,180,3.4,5.8,41,0.00,OVC,,0.00,WeatherDisplay:10.37,2013-11-06 01:28:00,
2013-11-05 20:33:00,50.9,28.0,30.33,SSW,202,3.6,5.8,41,0.00,OVC,,0.00,WeatherDisplay:10.37,2013-11-06 01:33:00,
2013-11-05 20:38:00,50.7,27.2,30.33,SSE,158,4.3,6.3,40,0.00,OVC,,0.00,WeatherDisplay:10.37,2013-11-06 01:38:00,
2013-11-05 20:43:00,50.5,27.0,30.32,South,180,3.2,4.2,40,0.00,OVC,,0.00,WeatherDisplay:10.37,2013-11-06 01:43:00,
2013-11-05 20:48:00,50.5,27.0,30.32,WNW,292,5.2,6.9,40,0.00,OVC,,0.00,WeatherDisplay:10.37,2013-11-06 01:48:00,
2013-11-05 20:53:00,50.4,27.0,30.32,West,270,2.5,3.5,40,0.00,OVC,,0.00,WeatherDisplay:10.37,2013-11-06 01:53:00,
2013-11-05 20:58:00,50.4,27.0,30.32,NNW,338,2.4,3.5,40,0.00,OVC,,0.00,WeatherDisplay:10.37,2013-11-06 01:58:00,
2013-11-05 21:03:00,50.5,26.4,30.33,South,180,3.1,4.6,39,0.00,OVC,,0.00,WeatherDisplay:10.37,2013-11-06 02:03:00,
2013-11-05 21:08:00,50.4,26.3,30.33,SSE,158,4.4,5.8,39,0.00,OVC,,0.00,WeatherDisplay:10.37,2013-11-06 02:08:00,
2013-11-05 21:13:00,50.4,27.0,30.33,SSE,158,2.3,3.5,40,0.00,OVC,,0.00,WeatherDisplay:10.37,2013-11-06 02:13:00,
2013-11-05 21:18:00,50.0,26.6,30.32,SSE,158,3.2,4.6,40,0.00,OVC,,0.00,WeatherDisplay:10.37,2013-11-06 02:18:00,
2013-11-05 21:23:00,50.0,26.6,30.32,SSE,158,4.3,4.6,40,0.00,OVC,,0.00,WeatherDisplay:10.37,2013-11-06 02:23:00,
2013-11-05 21:28:00,49.8,27.6,30.31,SE,135,3.0,3.7,42,0.00,OVC,,0.00,WeatherDisplay:10.37,2013-11-06 02:28:00,
2013-11-05 21:33:00,49.5,27.9,30.31,ESE,112,3.3,4.6,43,0.00,OVC,,0.00,WeatherDisplay:10.37,2013-11-06 02:33:00,
2013-11-05 21:38:00,49.3,27.7,30.31,SSE,158,4.3,4.7,43,0.00,OVC,,0.00,WeatherDisplay:10.37,2013-11-06 02:38:00,
2013-11-05 21:43:00,49.1,27.5,30.31,SSW,202,4.3,4.6,43,0.00,OVC,,0.00,WeatherDisplay:10.37,2013-11-06 02:43:00,
2013-11-05 21:48:00,48.9,27.9,30.31,SW,225,3.4,4.6,44,0.00,OVC,,0.00,WeatherDisplay:10.37,2013-11-06 02:48:00,
2013-11-05 21:53:00,48.7,27.7,30.33,NW,315,0.5,1.1,44,0.00,OVC,,0.00,WeatherDisplay:10.37,2013-11-06 02:53:00,
2013-11-05 21:58:00,48.7,27.2,30.33,East,90,3.4,3.7,43,0.00,OVC,,0.00,WeatherDisplay:10.37,2013-11-06 02:58:00,
2013-11-05 22:03:00,48.7,27.2,30.32,ESE,112,2.4,2.4,43,0.00,OVC,,0.00,WeatherDisplay:10.37,2013-11-06 03:03:00,
2013-11-05 22:08:00,48.4,28.0,30.32,SSE,158,2.8,3.5,45,0.00,OVC,,0.00,WeatherDisplay:10.37,2013-11-06 03:08:00,
2013-11-05 22:13:00,48.4,27.5,30.32,SE,135,2.7,3.5,44,0.00,OVC,,0.00,WeatherDisplay:10.37,2013-11-06 03:13:00,
2013-11-05 22:18:00,48.4,27.5,30.31,South,180,1.5,2.3,44,0.00,OVC,,0.00,WeatherDisplay:10.37,2013-11-06 03:18:00,
2013-11-05 22:23:00,48.4,27.5,30.31,SSE,158,2.1,2.7,44,0.00,OVC,,0.00,WeatherDisplay:10.37,2013-11-06 03:23:00,
2013-11-05 22:28:00,48.4,26.9,30.32,SSE,158,3.9,4.6,43,0.00,OVC,,0.00,WeatherDisplay:10.37,2013-11-06 03:28:00,
2013-11-05 22:33:00,48.4,27.5,30.32,SSE,158,2.4,2.7,44,0.00,OVC,,0.00,WeatherDisplay:10.37,2013-11-06 03:33:00,
2013-11-05 22:38:00,48.2,26.7,30.32,ESE,112,4.5,5.8,43,0.00,OVC,,0.00,WeatherDisplay:10.37,2013-11-06 03:38:00,
2013-11-05 22:43:00,48.4,26.9,30.32,South,180,2.9,4.6,43,0.00,OVC,,0.00,WeatherDisplay:10.37,2013-11-06 03:43:00,
2013-11-05 22:48:00,48.4,26.9,30.32,SSE,158,3.2,4.6,43,0.00,OVC,,0.00,WeatherDisplay:10.37,2013-11-06 03:48:00,
2013-11-05 22:53:00,48.4,26.9,30.31,SSW,202,2.2,2.3,43,0.00,OVC,,0.00,WeatherDisplay:10.37,2013-11-06 03:53:00,
2013-11-05 22:58:00,48.6,26.5,30.31,SSE,158,3.6,5.8,42,0.00,OVC,,0.00,WeatherDisplay:10.37,2013-11-06 03:58:00,
2013-11-05 23:03:00,48.7,26.6,30.31,SSE,158,2.8,3.5,42,0.00,OVC,,0.00,WeatherDisplay:10.37,2013-11-06 04:03:00,
2013-11-05 23:08:00,48.4,26.9,30.31,SSE,158,2.5,2.5,43,0.00,OVC,,0.00,WeatherDisplay:10.37,2013-11-06 04:08:00,
2013-11-05 23:13:00,48.4,26.9,30.31,SE,135,3.2,3.5,43,0.00,FEW,,0.00,WeatherDisplay:10.37,2013-11-06 04:13:00,
2013-11-05 23:18:00,48.4,26.3,30.31,SSE,158,3.4,4.6,42,0.00,FEW,,0.00,WeatherDisplay:10.37,2013-11-06 04:18:00,
2013-11-05 23:23:00,48.4,26.9,30.31,SE,135,3.3,3.7,43,0.00,FEW,,0.00,WeatherDisplay:10.37,2013-11-06 04:23:00,
2013-11-05 23:28:00,48.4,26.9,30.31,SE,135,3.7,3.7,43,0.00,FEW,,0.00,WeatherDisplay:10.37,2013-11-06 04:28:00,
2013-11-05 23:33:00,48.6,26.5,30.31,SSE,158,2.6,3.5,42,0.00,FEW,,0.00,WeatherDisplay:10.37,2013-11-06 04:33:00,
2013-11-05 23:38:00,48.4,26.9,30.31,SSE,158,2.8,3.7,43,0.00,FEW,,0.00,WeatherDisplay:10.37,2013-11-06 04:38:00,
2013-11-05 23:43:00,48.4,26.9,30.31,SSE,158,2.2,3.5,43,0.00,FEW,,0.00,WeatherDisplay:10.37,2013-11-06 04:43:00,
2013-11-05 23:48:00,48.6,27.1,30.31,South,180,2.4,3.7,43,0.00,FEW,,0.00,WeatherDisplay:10.37,2013-11-06 04:48:00,
2013-11-05 23:53:00,48.9,26.8,30.30,WNW,292,2.6,5.8,42,0.00,FEW,,0.00,WeatherDisplay:10.37,2013-11-06 04:53:00,
2013-11-05 23:58:00,48.9,26.8,30.30,SSE,158,2.6,3.5,42,0.00,FEW,,0.00,WeatherDisplay:10.37,2013-11-06 04:58:00,